createdAt,value
2019-02-16T00:00:46.538Z,5.25
2019-02-16T00:03:35.507Z,4.20
2019-02-16T00:06:24.524Z,4.40
2019-02-16T00:09:13.953Z,4.83
2019-02-16T00:12:02.682Z,8.85
2019-02-16T00:14:51.975Z,4.90
2019-02-16T00:17:41.415Z,5.22
2019-02-16T00:20:30.200Z,6.05
2019-02-16T00:23:18.994Z,5.92
2019-02-16T00:26:08.134Z,4.25
2019-02-16T00:28:57.095Z,4.40
2019-02-16T00:31:46.274Z,4.67
2019-02-16T00:34:35.528Z,4.35
2019-02-16T00:37:23.987Z,6.60
2019-02-16T00:40:13.047Z,5.60
2019-02-16T00:43:02.394Z,5.33
2019-02-16T00:45:51.784Z,11.83
2019-02-16T00:48:41.232Z,11.30
2019-02-16T00:51:30.542Z,6.28
2019-02-16T00:54:19.628Z,6.67
2019-02-16T00:57:09.282Z,7.20
2019-02-16T00:59:58.682Z,4.58
2019-02-16T01:02:48.012Z,4.72
2019-02-16T01:05:37.467Z,4.35
2019-02-16T01:08:26.966Z,4.97
2019-02-16T01:11:16.333Z,6.20
2019-02-16T01:14:05.763Z,9.45
2019-02-16T01:16:55.126Z,4.37
2019-02-16T01:19:44.431Z,4.72
2019-02-16T01:22:33.829Z,4.90
2019-02-16T01:25:23.195Z,6.37
2019-02-16T01:28:12.367Z,5.10
2019-02-16T01:31:01.548Z,6.15
2019-02-16T01:33:50.296Z,14.28
2019-02-16T01:36:39.145Z,5.03
2019-02-16T01:39:28.415Z,9.25
2019-02-16T01:42:19.427Z,5.90
2019-02-16T01:45:10.221Z,6.22
2019-02-16T01:47:58.954Z,5.47
2019-02-16T01:50:48.159Z,6.95
2019-02-16T01:53:37.628Z,11.93
2019-02-16T01:56:26.636Z,6.45
2019-02-16T01:59:15.896Z,10.95
2019-02-16T02:02:05.113Z,6.72
2019-02-16T02:04:54.434Z,7.72
2019-02-16T02:07:43.365Z,11.30
2019-02-16T02:10:32.740Z,7.87
2019-02-16T02:13:21.774Z,6.47
2019-02-16T02:16:10.559Z,9.20
2019-02-16T02:18:59.848Z,7.40
2019-02-16T02:21:49.203Z,10.50
2019-02-16T02:24:37.873Z,6.15
2019-02-16T02:27:27.291Z,7.42
2019-02-16T02:30:16.008Z,5.35
2019-02-16T02:33:05.426Z,11.90
2019-02-16T02:35:55.028Z,5.92
2019-02-16T02:38:44.305Z,6.15
2019-02-16T02:41:33.783Z,7.00
2019-02-16T02:44:23.051Z,6.55
2019-02-16T02:47:12.107Z,5.25
2019-02-16T02:50:01.368Z,6.97
2019-02-16T02:52:51.067Z,5.83
2019-02-16T02:55:40.011Z,5.97
2019-02-16T02:58:29.506Z,5.10
2019-02-16T03:01:18.847Z,8.48
2019-02-16T03:04:08.557Z,8.15
2019-02-16T03:06:57.746Z,6.08
2019-02-16T03:09:47.297Z,9.90
2019-02-16T03:12:36.030Z,7.53
2019-02-16T03:15:24.919Z,4.97
2019-02-16T03:18:14.291Z,5.35
2019-02-16T03:21:03.546Z,9.20
2019-02-16T03:23:52.613Z,7.53
2019-02-16T03:26:53.378Z,11.18
2019-02-16T03:29:53.337Z,6.33
2019-02-16T03:33:05.563Z,10.20
2019-02-16T03:36:08.479Z,10.20
2019-02-16T03:39:05.333Z,11.48
2019-02-16T03:41:54.340Z,6.42
2019-02-16T03:44:43.755Z,8.40
2019-02-16T03:47:33.304Z,10.05
2019-02-16T03:50:22.916Z,10.80
2019-02-16T03:53:12.061Z,6.60
2019-02-16T03:56:01.267Z,6.92
2019-02-16T03:58:50.109Z,6.83
2019-02-16T04:01:39.581Z,7.92
2019-02-16T04:04:29.040Z,6.53
2019-02-16T04:07:18.240Z,8.05
2019-02-16T04:10:08.096Z,4.90
2019-02-16T04:12:56.887Z,4.60
2019-02-16T04:15:46.211Z,8.48
2019-02-16T04:18:35.066Z,6.05
2019-02-16T04:21:24.183Z,6.40
2019-02-16T04:24:14.730Z,6.97
2019-02-16T04:27:04.232Z,6.92
2019-02-16T04:29:53.620Z,6.33
2019-02-16T04:32:42.464Z,5.92
2019-02-16T04:35:31.864Z,7.87
2019-02-16T04:38:20.642Z,6.42
2019-02-16T04:41:10.213Z,5.87
2019-02-16T04:44:00.372Z,7.28
2019-02-16T04:46:49.727Z,5.50
2019-02-16T04:49:38.758Z,6.35
2019-02-16T04:52:34.773Z,5.10
2019-02-16T04:55:19.430Z,6.30
2019-02-16T04:58:08.757Z,5.35
2019-02-16T05:00:57.760Z,6.90
2019-02-16T05:03:46.575Z,5.50
2019-02-16T05:06:35.929Z,6.12
2019-02-16T05:09:25.732Z,6.85
2019-02-16T05:12:14.886Z,5.45
2019-02-16T05:15:04.412Z,5.45
2019-02-16T05:17:53.842Z,4.87
2019-02-16T05:20:42.947Z,5.35
2019-02-16T05:23:31.481Z,5.58
2019-02-16T05:26:20.394Z,5.47
2019-02-16T05:29:09.386Z,5.95
2019-02-16T05:31:58.875Z,5.85
2019-02-16T05:34:48.144Z,6.65
2019-02-16T05:37:37.146Z,5.30
2019-02-16T05:40:26.779Z,6.22
2019-02-16T05:43:16.075Z,6.17
2019-02-16T05:46:05.818Z,6.10
2019-02-16T05:48:55.365Z,6.20
2019-02-16T05:51:44.776Z,5.10
2019-02-16T05:54:33.659Z,4.85
2019-02-16T05:57:22.460Z,6.03
2019-02-16T06:00:13.301Z,5.67
2019-02-16T06:03:02.676Z,5.33
2019-02-16T06:05:51.730Z,6.00
2019-02-16T06:08:41.080Z,5.03
2019-02-16T06:11:30.580Z,5.08
2019-02-16T06:14:19.384Z,4.47
2019-02-16T06:17:08.709Z,4.50
2019-02-16T06:19:57.980Z,4.90
2019-02-16T06:22:47.139Z,4.78
2019-02-16T06:25:36.241Z,4.30
2019-02-16T06:28:25.546Z,4.72
2019-02-16T06:31:14.027Z,4.95
2019-02-16T06:34:03.194Z,4.03
2019-02-16T06:36:53.547Z,4.80
2019-02-16T09:09:37.255Z,5.65
2019-02-16T10:13:58.758Z,8.30
2019-02-16T10:34:34.997Z,9.10
2019-02-16T10:37:27.831Z,9.20
2019-02-16T10:40:24.711Z,9.17
2019-02-16T11:56:06.177Z,12.80
2019-02-16T12:13:21.614Z,12.37
2019-02-16T12:33:51.857Z,12.50
2019-02-16T12:36:42.581Z,12.07
2019-02-16T12:48:06.509Z,12.20
2019-02-16T12:51:02.695Z,12.55
2019-02-16T12:53:53.848Z,11.70
2019-02-16T12:59:40.696Z,13.25
2019-02-16T13:05:24.024Z,11.90
2019-02-16T15:32:14.953Z,14.50
2019-02-16T15:51:54.727Z,13.80
2019-02-16T15:54:43.801Z,14.38
2019-02-16T15:57:33.361Z,13.90
2019-02-16T16:00:24.516Z,13.30
2019-02-16T16:03:14.271Z,13.18
2019-02-16T16:06:03.642Z,13.25
2019-02-16T16:08:55.167Z,14.23
2019-02-16T16:11:45.729Z,13.93
2019-02-16T16:14:38.772Z,13.90
2019-02-16T16:17:41.494Z,13.22
2019-02-16T16:20:37.582Z,14.80
2019-02-16T16:23:31.153Z,13.68
2019-02-16T16:26:37.612Z,13.55
2019-02-16T16:29:43.608Z,13.18
2019-02-16T16:32:37.306Z,15.00
2019-02-16T16:35:30.996Z,14.63
2019-02-16T16:38:21.754Z,14.23
2019-02-16T16:41:18.061Z,14.65
2019-02-16T16:44:14.587Z,14.33
2019-02-16T16:47:06.544Z,14.53
2019-02-16T16:49:57.816Z,14.30
2019-02-16T16:53:05.199Z,15.35
2019-02-16T16:55:58.636Z,15.55
2019-02-16T16:58:57.664Z,16.00
2019-02-16T17:02:00.195Z,15.32
2019-02-16T17:04:50.752Z,14.65
2019-02-16T17:07:50.457Z,15.45
2019-02-16T17:10:41.493Z,14.33
2019-02-16T17:13:35.038Z,15.15
2019-02-16T17:16:25.449Z,15.58
2019-02-16T17:19:28.139Z,14.65
2019-02-16T17:22:34.859Z,15.40
2019-02-16T17:25:40.756Z,15.32
2019-02-16T17:28:37.869Z,14.63
2019-02-16T17:31:28.230Z,14.65
2019-02-16T17:34:18.904Z,15.05
2019-02-16T17:37:07.739Z,14.43
2019-02-16T17:39:58.467Z,15.28
2019-02-16T17:42:54.892Z,14.70
2019-02-16T17:45:48.287Z,14.53
2019-02-16T17:48:42.463Z,16.48
2019-02-16T17:51:33.284Z,14.43
2019-02-16T17:54:33.495Z,15.20
2019-02-16T17:57:23.876Z,15.80
2019-02-16T18:00:15.587Z,15.35
2019-02-16T18:03:05.934Z,15.05
2019-02-16T18:05:56.809Z,14.78
2019-02-16T18:09:04.140Z,14.63
2019-02-16T18:12:13.133Z,14.45
2019-02-16T18:15:22.387Z,14.75
2019-02-16T18:18:28.223Z,15.25
2019-02-16T18:21:19.056Z,16.32
2019-02-16T18:24:09.440Z,16.23
2019-02-16T18:27:08.811Z,16.62
2019-02-16T18:29:59.296Z,15.00
2019-02-16T18:33:06.627Z,16.80
2019-02-16T18:35:57.041Z,15.98
2019-02-16T18:38:47.527Z,16.20
2019-02-16T18:41:48.151Z,15.38
2019-02-16T18:44:39.648Z,16.52
2019-02-16T18:47:32.028Z,15.88
2019-02-16T18:50:23.837Z,16.30
2019-02-16T18:53:27.010Z,15.78
2019-02-16T18:56:15.976Z,15.03
2019-02-16T18:59:12.493Z,16.12
2019-02-16T19:02:13.605Z,15.48
2019-02-16T19:05:07.528Z,16.32
2019-02-16T19:07:58.414Z,16.97
2019-02-16T19:11:04.613Z,15.78
2019-02-16T19:13:58.423Z,16.60
2019-02-16T19:16:58.319Z,15.32
2019-02-16T19:19:52.407Z,17.12
2019-02-16T19:22:46.120Z,15.45
2019-02-16T19:25:37.180Z,17.05
2019-02-16T19:28:30.271Z,17.00
2019-02-16T19:31:35.507Z,17.45
2019-02-16T19:34:26.144Z,15.90
2019-02-16T19:37:16.893Z,16.80
2019-02-16T19:40:09.463Z,16.80
2019-02-16T19:43:00.029Z,17.30
2019-02-16T19:45:50.686Z,15.90
2019-02-16T19:48:39.256Z,17.80
2019-02-16T19:51:46.615Z,18.40
2019-02-16T19:54:35.475Z,16.30
2019-02-16T19:57:29.018Z,17.82
2019-02-16T20:00:22.126Z,17.27
2019-02-16T20:03:14.950Z,17.70
2019-02-16T20:06:08.466Z,18.52
2019-02-16T20:09:14.295Z,18.45
2019-02-16T20:12:05.090Z,18.00
2019-02-16T20:15:13.988Z,17.77
2019-02-16T20:18:06.872Z,17.07
2019-02-16T20:21:03.697Z,18.27
2019-02-16T20:23:57.469Z,18.70
2019-02-16T20:27:00.070Z,19.50
2019-02-16T20:29:51.117Z,17.75
2019-02-16T20:32:58.035Z,19.82
2019-02-16T20:36:00.969Z,18.75
2019-02-16T20:39:00.251Z,18.60
2019-02-16T20:41:52.112Z,19.12
2019-02-16T20:44:43.477Z,19.07
2019-02-16T20:47:33.932Z,18.35
2019-02-16T20:50:32.198Z,18.15
2019-02-16T20:53:31.948Z,19.30
2019-02-16T20:56:22.724Z,20.62
2019-02-16T20:59:31.674Z,19.75
2019-02-16T21:02:20.613Z,19.05
2019-02-16T21:05:12.028Z,22.98
2019-02-16T21:08:12.061Z,24.75
2019-02-16T21:11:08.897Z,18.77
2019-02-16T21:13:59.651Z,18.98
2019-02-16T21:16:50.124Z,20.15
2019-02-16T21:19:43.982Z,20.02
2019-02-16T21:22:44.912Z,19.15
2019-02-16T21:25:35.940Z,21.27
2019-02-16T21:28:26.273Z,20.43
2019-02-16T21:31:18.297Z,18.23
2019-02-16T21:34:09.172Z,18.92
2019-02-16T21:36:59.969Z,18.57
2019-02-16T21:39:50.232Z,20.37
2019-02-16T21:42:47.108Z,21.75
2019-02-16T21:45:52.551Z,20.30
2019-02-16T21:48:42.854Z,19.07
2019-02-16T21:51:49.223Z,19.52
2019-02-16T21:54:39.943Z,18.65
2019-02-16T21:57:35.977Z,17.35
2019-02-16T22:00:25.202Z,19.95
2019-02-16T22:03:21.504Z,22.70
2019-02-16T22:06:12.090Z,19.20
2019-02-16T22:09:01.319Z,18.87
2019-02-16T22:12:03.660Z,22.13
2019-02-16T22:14:53.068Z,19.20
2019-02-16T22:17:42.097Z,18.50
2019-02-16T22:20:31.615Z,20.30
2019-02-16T22:23:20.878Z,17.20
2019-02-16T22:26:09.978Z,17.32
2019-02-16T22:28:59.267Z,18.10
2019-02-16T22:31:48.058Z,23.85
2019-02-16T22:34:37.241Z,19.15
2019-02-16T22:37:26.615Z,18.50
2019-02-16T22:40:16.309Z,18.55
2019-02-16T22:43:05.341Z,17.35
2019-02-16T22:45:54.119Z,19.23
2019-02-16T22:48:44.523Z,19.48
2019-02-16T22:51:33.508Z,18.87
2019-02-16T22:54:23.255Z,18.57
2019-02-16T22:57:12.512Z,16.80
2019-02-16T23:00:01.495Z,20.48
2019-02-16T23:02:51.070Z,17.45
2019-02-16T23:05:40.433Z,18.75
2019-02-16T23:08:29.908Z,18.95
2019-02-16T23:11:18.616Z,19.65
2019-02-16T23:14:08.341Z,19.10
2019-02-16T23:16:56.824Z,18.25
2019-02-16T23:19:46.162Z,18.92
2019-02-16T23:22:35.047Z,17.85
2019-02-16T23:25:24.292Z,21.12
2019-02-16T23:28:13.641Z,20.30
2019-02-16T23:31:03.712Z,18.98
2019-02-16T23:33:52.796Z,22.77
2019-02-16T23:36:42.095Z,19.15
2019-02-16T23:39:31.194Z,20.45
2019-02-16T23:42:20.730Z,19.82
2019-02-16T23:45:11.634Z,18.15
2019-02-16T23:48:00.484Z,19.90
2019-02-16T23:50:49.273Z,20.52
2019-02-16T23:53:38.141Z,22.95
2019-02-16T23:56:28.006Z,22.85
2019-02-16T23:59:16.948Z,19.32
